Tabellarische Übersicht vom Mittwoch, den 25.11.2020

Oder anderes Datum wählen:






max 6,8°C 88,0% 3,8°C 1018,1hPa 7,0°C 0,0km/h (0Bft) 0,0km/h 0° (N) ∑0,0l/m² 2,000klx ∑0,0min
min 5,4°C 81,0% 3,3°C 1015,4hPa 5,0°C 0,0km/h (0Bft) 0,0km/h 0° (N) ∑0,0l/m² 0,000klx ∑0,0min
Ø 5,9°C 85,0% 3,6°C 1016,3hPa 6,0°C 0,0km/h (0Bft) 0,0km/h 0° (N) ∑0,0l/m² 1,000klx ∑0,0min
Zeit Temperatur Luftfeuchte Taupunkt Luftdruck Windchill Windböen Windgeschwindigkeit Windrichtung Regen Helligkeit Regenzeit
08:45 6,8°C 81,1% 3,7°C 1015,8hPa 6,8°C 0,0km/h (0Bft) 0,0km/h 0,0l/m² 2,283klx 0,0min
08:40 6,7°C 81,7% 3,7°C 1015,8hPa 6,7°C 0,0km/h (0Bft) 0,0km/h 0,0l/m² 2,038klx 0,0min
08:35 6,7°C 81,2% 3,7°C 1015,8hPa 6,7°C 0,0km/h (0Bft) 0,0km/h 0,0l/m² 1,757klx 0,0min
08:30 6,7°C 81,5% 3,8°C 1015,7hPa 6,7°C 0,0km/h (0Bft) 0,0km/h 0,0l/m² 1,493klx 0,0min
08:25 6,6°C 81,9% 3,7°C 1015,6hPa 6,6°C 0,0km/h (0Bft) 0,0km/h 0,0l/m² 1,214klx 0,0min
08:20 6,6°C 81,8% 3,7°C 1015,6hPa 6,6°C 0,0km/h (0Bft) 0,0km/h 0,0l/m² 0,958klx 0,0min
08:15 6,7°C 81,5% 3,7°C 1015,5hPa 6,7°C 0,0km/h (0Bft) 0,0km/h 0,0l/m² 0,725klx 0,0min
08:10 6,5°C 82,1% 3,7°C 1015,5hPa 6,5°C 0,0km/h (0Bft) 0,0km/h 0,0l/m² 0,529klx 0,0min
08:05 6,6°C 81,7% 3,7°C 1015,5hPa 6,6°C 0,0km/h (0Bft) 0,0km/h 0,0l/m² 0,366klx 0,0min
08:00 6,5°C 82,1% 3,7°C 1015,5hPa 6,5°C 0,0km/h (0Bft) 0,0km/h 0,0l/m² 0,232klx 0,0min
07:55 6,5°C 82,5% 3,7°C 1015,5hPa 6,5°C 0,0km/h (0Bft) 0,0km/h 0,0l/m² 0,134klx 0,0min
07:50 6,4°C 82,5% 3,7°C 1015,5hPa 6,4°C 0,0km/h (0Bft) 0,0km/h 0,0l/m² 0,071klx 0,0min
07:45 6,5°C 82,1% 3,7°C 1015,5hPa 6,5°C 0,0km/h (0Bft) 0,0km/h 0,0l/m² 0,034klx 0,0min
07:40 6,5°C 82,4% 3,7°C 1015,4hPa 6,5°C 0,0km/h (0Bft) 0,0km/h 0,0l/m² 0,015klx 0,0min
07:35 6,4°C 82,6% 3,7°C 1015,4hPa 6,4°C 0,0km/h (0Bft) 0,0km/h 0,0l/m² 0,007klx 0,0min
07:30 6,4°C 82,6% 3,7°C 1015,4hPa 6,4°C 0,0km/h (0Bft) 0,0km/h 0,0l/m² 0,003klx 0,0min
07:25 6,4°C 82,5% 3,7°C 1015,4hPa 6,4°C 0,0km/h (0Bft) 0,0km/h 0,0l/m² 0,001klx 0,0min
07:20 6,5°C 82,4% 3,7°C 1015,4hPa 6,5°C 0,0km/h (0Bft) 0,0km/h 0,0l/m² 0,001klx 0,0min
07:15 6,3°C 82,9% 3,6°C 1015,4hPa 6,3°C 0,0km/h (0Bft) 0,0km/h 0,0l/m² 0,000klx 0,0min
07:10 6,3°C 83,0% 3,7°C 1015,4hPa 6,3°C 0,0km/h (0Bft) 0,0km/h 0,0l/m² 0,000klx 0,0min
07:05 6,3°C 83,0% 3,6°C 1015,5hPa 6,3°C 0,0km/h (0Bft) 0,0km/h 0,0l/m² 0,000klx 0,0min
07:00 6,4°C 82,8% 3,6°C 1015,5hPa 6,4°C 0,0km/h (0Bft) 0,0km/h 0,0l/m² 0,000klx 0,0min
06:55 6,3°C 83,3% 3,7°C 1015,5hPa 6,3°C 0,0km/h (0Bft) 0,0km/h 0,0l/m² 0,000klx 0,0min
06:50 6,2°C 83,5% 3,6°C 1015,5hPa 6,2°C 0,0km/h (0Bft) 0,0km/h 0,0l/m² 0,000klx 0,0min
06:45 6,3°C 83,3% 3,6°C 1015,5hPa 6,3°C 0,0km/h (0Bft) 0,0km/h 0,0l/m² 0,000klx 0,0min
06:40 6,3°C 83,0% 3,7°C 1015,6hPa 6,3°C 0,0km/h (0Bft) 0,0km/h 0,0l/m² 0,000klx 0,0min
06:35 6,3°C 83,3% 3,7°C 1015,5hPa 6,3°C 0,0km/h (0Bft) 0,0km/h 0,0l/m² 0,000klx 0,0min
06:30 6,2°C 83,2% 3,6°C 1015,6hPa 6,2°C 0,0km/h (0Bft) 0,0km/h 0,0l/m² 0,000klx 0,0min
06:25 6,4°C 82,9% 3,7°C 1015,6hPa 6,4°C 0,0km/h (0Bft) 0,0km/h 0,0l/m² 0,000klx 0,0min
06:20 6,3°C 83,2% 3,7°C 1015,6hPa 6,3°C 0,0km/h (0Bft) 0,0km/h 0,0l/m² 0,000klx 0,0min
06:15 6,2°C 83,7% 3,6°C 1015,6hPa 6,2°C 0,0km/h (0Bft) 0,0km/h 0,0l/m² 0,000klx 0,0min
06:10 6,1°C 84,4% 3,6°C 1015,7hPa 6,1°C 0,0km/h (0Bft) 0,0km/h 0,0l/m² 0,000klx 0,0min
06:05 6,0°C 84,7% 3,6°C 1015,6hPa 6,0°C 0,0km/h (0Bft) 0,0km/h 0,0l/m² 0,000klx 0,0min
06:00 5,8°C 85,1% 3,5°C 1015,7hPa 5,8°C 0,0km/h (0Bft) 0,0km/h 0,0l/m² 0,000klx 0,0min
05:55 5,8°C 84,5% 3,4°C 1015,8hPa 5,8°C 0,0km/h (0Bft) 0,0km/h 0,0l/m² 0,000klx 0,0min
05:50 6,0°C 84,2% 3,5°C 1015,9hPa 6,0°C 0,0km/h (0Bft) 0,0km/h 0,0l/m² 0,000klx 0,0min
05:45 6,0°C 84,0% 3,5°C 1015,9hPa 6,0°C 0,0km/h (0Bft) 0,0km/h 0,0l/m² 0,000klx 0,0min
05:40 6,0°C 84,4% 3,5°C 1015,9hPa 6,0°C 0,0km/h (0Bft) 0,0km/h 0,0l/m² 0,000klx 0,0min
05:35 5,7°C 84,8% 3,3°C 1015,9hPa 5,7°C 0,0km/h (0Bft) 0,0km/h 0,0l/m² 0,000klx 0,0min
05:30 5,9°C 84,3% 3,4°C 1015,9hPa 5,9°C 0,0km/h (0Bft) 0,0km/h 0,0l/m² 0,000klx 0,0min
05:25 5,8°C 84,2% 3,4°C 1015,9hPa 5,8°C 0,0km/h (0Bft) 0,0km/h 0,0l/m² 0,000klx 0,0min
05:20 5,8°C 84,6% 3,4°C 1015,9hPa 5,8°C 0,0km/h (0Bft) 0,0km/h 0,0l/m² 0,000klx 0,0min
05:15 5,7°C 85,1% 3,4°C 1015,9hPa 5,7°C 0,0km/h (0Bft) 0,0km/h 0,0l/m² 0,000klx 0,0min
05:10 5,6°C 85,2% 3,3°C 1015,9hPa 5,6°C 0,0km/h (0Bft) 0,0km/h 0,0l/m² 0,000klx 0,0min
05:05 5,6°C 85,3% 3,4°C 1015,9hPa 5,6°C 0,0km/h (0Bft) 0,0km/h 0,0l/m² 0,000klx 0,0min
05:00 5,5°C 85,9% 3,3°C 1015,9hPa 5,5°C 0,0km/h (0Bft) 0,0km/h 0,0l/m² 0,000klx 0,0min
04:55 5,7°C 85,2% 3,4°C 1015,9hPa 5,7°C 0,0km/h (0Bft) 0,0km/h 0,0l/m² 0,000klx 0,0min
04:50 5,6°C 85,8% 3,4°C 1015,9hPa 5,6°C 0,0km/h (0Bft) 0,0km/h 0,0l/m² 0,000klx 0,0min
04:45 5,6°C 85,9% 3,4°C 1015,9hPa 5,6°C 0,0km/h (0Bft) 0,0km/h 0,0l/m² 0,000klx 0,0min
04:40 5,5°C 86,5% 3,5°C 1015,9hPa 5,5°C 0,0km/h (0Bft) 0,0km/h 0,0l/m² 0,000klx 0,0min
04:35 5,4°C 86,5% 3,4°C 1016,0hPa 5,4°C 0,0km/h (0Bft) 0,0km/h 0,0l/m² 0,000klx 0,0min
04:30 5,5°C 86,3% 3,4°C 1016,0hPa 5,5°C 0,0km/h (0Bft) 0,0km/h 0,0l/m² 0,000klx 0,0min
04:25 5,5°C 86,7% 3,4°C 1016,0hPa 5,5°C 0,0km/h (0Bft) 0,0km/h 0,0l/m² 0,000klx 0,0min
04:20 5,6°C 86,0% 3,4°C 1016,0hPa 5,6°C 0,0km/h (0Bft) 0,0km/h 0,0l/m² 0,000klx 0,0min
04:15 5,7°C 85,8% 3,5°C 1016,0hPa 5,7°C 0,0km/h (0Bft) 0,0km/h 0,0l/m² 0,000klx 0,0min
04:10 5,8°C 85,7% 3,6°C 1016,0hPa 5,8°C 0,0km/h (0Bft) 0,0km/h 0,0l/m² 0,000klx 0,0min
04:05 5,8°C 85,7% 3,6°C 1016,0hPa 5,8°C 0,0km/h (0Bft) 0,0km/h 0,0l/m² 0,000klx 0,0min
04:00 5,7°C 86,2% 3,6°C 1016,1hPa 5,7°C 0,0km/h (0Bft) 0,0km/h 0,0l/m² 0,000klx 0,0min
03:55 5,7°C 86,5% 3,6°C 1016,1hPa 5,7°C 0,0km/h (0Bft) 0,0km/h 0,0l/m² 0,000klx 0,0min
03:50 5,6°C 86,6% 3,5°C 1016,2hPa 5,6°C 0,0km/h (0Bft) 0,0km/h 0,0l/m² 0,000klx 0,0min
03:45 5,6°C 86,3% 3,5°C 1016,2hPa 5,6°C 0,0km/h (0Bft) 0,0km/h 0,0l/m² 0,000klx 0,0min
03:40 5,7°C 86,0% 3,5°C 1016,3hPa 5,7°C 0,0km/h (0Bft) 0,0km/h 0,0l/m² 0,000klx 0,0min
03:35 5,8°C 85,9% 3,6°C 1016,3hPa 5,8°C 0,0km/h (0Bft) 0,0km/h 0,0l/m² 0,000klx 0,0min
03:30 5,7°C 86,3% 3,6°C 1016,4hPa 5,7°C 0,0km/h (0Bft) 0,0km/h 0,0l/m² 0,000klx 0,0min
03:25 5,6°C 86,3% 3,5°C 1016,5hPa 5,6°C 0,0km/h (0Bft) 0,0km/h 0,0l/m² 0,000klx 0,0min
03:20 5,7°C 85,9% 3,6°C 1016,5hPa 5,7°C 0,0km/h (0Bft) 0,0km/h 0,0l/m² 0,000klx 0,0min
03:15 5,7°C 86,3% 3,6°C 1016,5hPa 5,7°C 0,0km/h (0Bft) 0,0km/h 0,0l/m² 0,000klx 0,0min
03:10 5,7°C 86,2% 3,5°C 1016,5hPa 5,7°C 0,0km/h (0Bft) 0,0km/h 0,0l/m² 0,000klx 0,0min
03:05 5,7°C 86,1% 3,6°C 1016,5hPa 5,7°C 0,0km/h (0Bft) 0,0km/h 0,0l/m² 0,000klx 0,0min
03:00 5,8°C 85,9% 3,6°C 1016,6hPa 5,8°C 0,0km/h (0Bft) 0,0km/h 0,0l/m² 0,000klx 0,0min
02:55 5,8°C 86,2% 3,6°C 1016,6hPa 5,8°C 0,0km/h (0Bft) 0,0km/h 0,0l/m² 0,000klx 0,0min
02:50 5,7°C 86,4% 3,6°C 1016,7hPa 5,7°C 0,0km/h (0Bft) 0,0km/h 0,0l/m² 0,000klx 0,0min
02:45 5,7°C 86,5% 3,6°C 1016,7hPa 5,7°C 0,0km/h (0Bft) 0,0km/h 0,0l/m² 0,000klx 0,0min
02:40 5,6°C 87,1% 3,6°C 1016,8hPa 5,6°C 0,0km/h (0Bft) 0,0km/h 0,0l/m² 0,000klx 0,0min
02:35 5,6°C 86,8% 3,6°C 1016,8hPa 5,6°C 0,0km/h (0Bft) 0,0km/h 0,0l/m² 0,000klx 0,0min
02:30 5,7°C 86,8% 3,6°C 1016,8hPa 5,7°C 0,0km/h (0Bft) 0,0km/h 0,0l/m² 0,000klx 0,0min
02:25 5,6°C 87,1% 3,6°C 1016,8hPa 5,6°C 0,0km/h (0Bft) 0,0km/h 0,0l/m² 0,000klx 0,0min
02:20 5,6°C 86,9% 3,6°C 1016,8hPa 5,6°C 0,0km/h (0Bft) 0,0km/h 0,0l/m² 0,000klx 0,0min
02:15 5,7°C 86,9% 3,7°C 1016,9hPa 5,7°C 0,0km/h (0Bft) 0,0km/h 0,0l/m² 0,000klx 0,0min
02:10 5,7°C 86,9% 3,7°C 1016,9hPa 5,7°C 0,0km/h (0Bft) 0,0km/h 0,0l/m² 0,000klx 0,0min
02:05 5,6°C 87,2% 3,7°C 1016,9hPa 5,6°C 0,0km/h (0Bft) 0,0km/h 0,0l/m² 0,000klx 0,0min
02:00 5,6°C 87,3% 3,6°C 1016,9hPa 5,6°C 0,0km/h (0Bft) 0,0km/h 0,0l/m² 0,000klx 0,0min
01:55 5,5°C 87,6% 3,6°C 1016,9hPa 5,5°C 0,0km/h (0Bft) 0,0km/h 0,0l/m² 0,000klx 0,0min
01:50 5,6°C 87,3% 3,6°C 1016,9hPa 5,6°C 0,0km/h (0Bft) 0,0km/h 0,0l/m² 0,000klx 0,0min
01:45 5,6°C 87,3% 3,6°C 1017,0hPa 5,6°C 0,0km/h (0Bft) 0,0km/h 0,0l/m² 0,000klx 0,0min
01:40 5,6°C 87,4% 3,6°C 1017,0hPa 5,6°C 0,0km/h (0Bft) 0,0km/h 0,0l/m² 0,000klx 0,0min
01:35 5,6°C 87,5% 3,6°C 1017,1hPa 5,6°C 0,0km/h (0Bft) 0,0km/h 0,0l/m² 0,000klx 0,0min
01:30 5,6°C 87,5% 3,7°C 1017,2hPa 5,6°C 0,0km/h (0Bft) 0,0km/h 0,0l/m² 0,000klx 0,0min
01:25 5,5°C 87,5% 3,6°C 1017,2hPa 5,5°C 0,0km/h (0Bft) 0,0km/h 0,0l/m² 0,000klx 0,0min
01:20 5,6°C 87,4% 3,7°C 1017,3hPa 5,6°C 0,0km/h (0Bft) 0,0km/h 0,0l/m² 0,000klx 0,0min
01:15 5,6°C 87,5% 3,7°C 1017,4hPa 5,6°C 0,0km/h (0Bft) 0,0km/h 0,0l/m² 0,000klx 0,0min
01:10 5,6°C 87,2% 3,6°C 1017,5hPa 5,6°C 0,0km/h (0Bft) 0,0km/h 0,0l/m² 0,000klx 0,0min
01:05 5,6°C 87,3% 3,7°C 1017,5hPa 5,6°C 0,0km/h (0Bft) 0,0km/h 0,0l/m² 0,000klx 0,0min
01:00 5,6°C 87,5% 3,7°C 1017,5hPa 5,6°C 0,0km/h (0Bft) 0,0km/h 0,0l/m² 0,000klx 0,0min
00:55 5,6°C 87,7% 3,7°C 1017,6hPa 5,6°C 0,0km/h (0Bft) 0,0km/h 0,0l/m² 0,000klx 0,0min
00:50 5,5°C 87,9% 3,7°C 1017,7hPa 5,5°C 0,0km/h (0Bft) 0,0km/h 0,0l/m² 0,000klx 0,0min
00:45 5,6°C 87,7% 3,7°C 1017,7hPa 5,6°C 0,0km/h (0Bft) 0,0km/h 0,0l/m² 0,000klx 0,0min
00:40 5,6°C 87,4% 3,7°C 1017,8hPa 5,6°C 0,0km/h (0Bft) 0,0km/h 0,0l/m² 0,000klx 0,0min
00:35 5,7°C 87,3% 3,8°C 1017,8hPa 5,7°C 0,0km/h (0Bft) 0,0km/h 0,0l/m² 0,000klx 0,0min
00:30 5,7°C 87,4% 3,7°C 1017,9hPa 5,7°C 0,0km/h (0Bft) 0,0km/h 0,0l/m² 0,000klx 0,0min
00:25 5,7°C 87,2% 3,8°C 1018,0hPa 5,7°C 0,0km/h (0Bft) 0,0km/h 0,0l/m² 0,000klx 0,0min
00:20 5,7°C 87,3% 3,8°C 1018,0hPa 5,7°C 0,0km/h (0Bft) 0,0km/h 0,0l/m² 0,000klx 0,0min
00:15 5,7°C 87,2% 3,8°C 1018,0hPa 5,7°C 0,0km/h (0Bft) 0,0km/h 0,0l/m² 0,000klx 0,0min
00:10 5,8°C 87,3% 3,8°C 1018,1hPa 5,8°C 0,0km/h (0Bft) 0,0km/h 0,0l/m² 0,000klx 0,0min
00:05 5,7°C 87,6% 3,8°C 1018,1hPa 5,7°C 0,0km/h (0Bft) 0,0km/h 0,0l/m² 0,000klx 0,0min
00:00 5,7°C 87,6% 3,8°C 1018,1hPa 5,7°C 0,0km/h (0Bft) 0,0km/h 0,0l/m² 0,000klx 0,0min

Aktuelle Wetterdaten

25.11.2020 08:45 Uhr